Time,TemperatureF,DewpointF,PressureIn,WindDirection,WindDirectionDegrees,WindSpeedMPH,WindSpeedGustMPH,Humidity,HourlyPrecipIn,Conditions,Clouds,dailyrainin,SoftwareType,DateUTC
2013-07-26 00:05:00,69.3,54.0,29.94,SE,127,1.0,-999.0,58,-99.99,,,0.00,weatherlink.com 1.10,2013-07-26 04:05:00,
2013-07-26 00:20:00,68.4,53.0,29.94,SE,127,0.0,-999.0,59,-99.99,,,0.00,weatherlink.com 1.10,2013-07-26 04:20:00,
2013-07-26 00:35:00,67.4,52.0,29.95,SSE,156,2.0,-999.0,58,-99.99,,,0.00,weatherlink.com 1.10,2013-07-26 04:35:00,
2013-07-26 00:50:00,66.8,52.0,29.95,SE,124,0.0,-999.0,60,-99.99,,,0.00,weatherlink.com 1.10,2013-07-26 04:50:00,
2013-07-26 01:06:00,66.0,52.0,29.96,ESE,123,0.0,-999.0,61,-99.99,,,0.00,weatherlink.com 1.10,2013-07-26 05:06:00,
2013-07-26 01:21:00,65.3,52.0,29.96,ESE,123,0.0,-999.0,62,-99.99,,,0.00,weatherlink.com 1.10,2013-07-26 05:21:00,
2013-07-26 01:36:00,64.7,52.0,29.97,ESE,123,0.0,-999.0,63,-99.99,,,0.00,weatherlink.com 1.10,2013-07-26 05:36:00,
2013-07-26 01:51:00,64.0,52.0,29.97,ESE,123,0.0,-999.0,65,-99.99,,,0.00,weatherlink.com 1.10,2013-07-26 05:51:00,
2013-07-26 02:06:00,63.4,52.0,29.97,ESE,123,0.0,-999.0,66,-99.99,,,0.00,weatherlink.com 1.10,2013-07-26 06:06:00,
2013-07-26 02:21:00,62.9,52.0,29.97,ESE,123,0.0,-999.0,67,-99.99,,,0.00,weatherlink.com 1.10,2013-07-26 06:21:00,
2013-07-26 03:06:00,61.6,52.0,29.97,ESE,123,0.0,-999.0,70,-99.99,,,0.00,weatherlink.com 1.10,2013-07-26 07:06:00,
2013-07-26 03:21:00,61.2,51.0,29.97,SE,124,0.0,-999.0,70,-99.99,,,0.00,weatherlink.com 1.10,2013-07-26 07:21:00,
2013-07-26 03:36:00,60.7,51.0,29.97,ESE,123,0.0,-999.0,71,-99.99,,,0.00,weatherlink.com 1.10,2013-07-26 07:36:00,
2013-07-26 03:51:00,60.4,51.0,29.97,ESE,123,0.0,-999.0,72,-99.99,,,0.00,weatherlink.com 1.10,2013-07-26 07:51:00,
2013-07-26 04:07:00,59.8,51.0,29.97,ESE,123,0.0,-999.0,73,-99.99,,,0.00,weatherlink.com 1.10,2013-07-26 08:07:00,
2013-07-26 04:22:00,59.3,51.0,29.96,ESE,123,0.0,-999.0,74,-99.99,,,0.00,weatherlink.com 1.10,2013-07-26 08:22:00,
2013-07-26 04:37:00,59.0,51.0,29.97,ESE,123,0.0,-999.0,74,-99.99,,,0.00,weatherlink.com 1.10,2013-07-26 08:37:00,
2013-07-26 04:52:00,58.6,51.0,29.97,ESE,123,0.0,-999.0,75,-99.99,,,0.00,weatherlink.com 1.10,2013-07-26 08:52:00,
2013-07-26 05:07:00,58.0,51.0,29.97,ESE,123,0.0,-999.0,77,-99.99,,,0.00,weatherlink.com 1.10,2013-07-26 09:07:00,
2013-07-26 05:22:00,57.3,51.0,29.97,ESE,123,0.0,-999.0,78,-99.99,,,0.00,weatherlink.com 1.10,2013-07-26 09:22:00,
2013-07-26 05:37:00,56.7,50.0,29.97,ESE,123,0.0,-999.0,79,-99.99,,,0.00,weatherlink.com 1.10,2013-07-26 09:37:00,
2013-07-26 05:52:00,56.3,51.0,29.98,ESE,123,0.0,-999.0,81,-99.99,,,0.00,weatherlink.com 1.10,2013-07-26 09:52:00,
2013-07-26 06:07:00,56.0,51.0,29.98,ESE,123,0.0,-999.0,82,-99.99,,,0.00,weatherlink.com 1.10,2013-07-26 10:07:00,
2013-07-26 06:22:00,55.7,50.0,29.98,ESE,123,0.0,-999.0,82,-99.99,,,0.00,weatherlink.com 1.10,2013-07-26 10:22:00,
2013-07-26 06:37:00,55.3,50.0,29.98,ESE,123,0.0,-999.0,83,-99.99,,,0.00,weatherlink.com 1.10,2013-07-26 10:37:00,
2013-07-26 06:52:00,55.1,50.0,29.98,ESE,123,0.0,-999.0,84,-99.99,,,0.00,weatherlink.com 1.10,2013-07-26 10:52:00,
2013-07-26 07:07:00,54.8,50.0,29.98,ESE,123,0.0,-999.0,84,-99.99,,,0.00,weatherlink.com 1.10,2013-07-26 11:07:00,
2013-07-26 07:22:00,54.7,50.0,29.99,SE,124,0.0,-999.0,84,-99.99,,,0.00,weatherlink.com 1.10,2013-07-26 11:22:00,
2013-07-26 07:37:00,54.5,50.0,29.99,ESE,123,0.0,-999.0,84,-99.99,,,0.00,weatherlink.com 1.10,2013-07-26 11:37:00,
2013-07-26 07:52:00,53.9,49.0,29.99,ESE,123,0.0,-999.0,84,-99.99,,,0.00,weatherlink.com 1.10,2013-07-26 11:52:00,
2013-07-26 08:07:00,53.5,49.0,29.99,ESE,123,0.0,-999.0,84,-99.99,,,0.00,weatherlink.com 1.10,2013-07-26 12:07:00,
2013-07-26 08:22:00,53.2,49.0,30.00,ESE,123,0.0,-999.0,84,-99.99,,,0.00,weatherlink.com 1.10,2013-07-26 12:22:00,
2013-07-26 08:37:00,52.9,49.0,30.00,ESE,123,0.0,-999.0,85,-99.99,,,0.00,weatherlink.com 1.10,2013-07-26 12:37:00,
2013-07-26 08:52:00,52.8,48.0,30.00,ESE,123,0.0,-999.0,85,-99.99,,,0.00,weatherlink.com 1.10,2013-07-26 12:52:00,
2013-07-26 09:07:00,52.8,49.0,30.01,ESE,123,0.0,-999.0,87,-99.99,,,0.00,weatherlink.com 1.10,2013-07-26 13:07:00,
2013-07-26 09:22:00,53.1,50.0,30.02,SE,124,0.0,-999.0,88,-99.99,,,0.00,weatherlink.com 1.10,2013-07-26 13:22:00,
2013-07-26 09:37:00,53.3,50.0,30.03,SE,124,0.0,-999.0,88,-99.99,,,0.00,weatherlink.com 1.10,2013-07-26 13:37:00,
2013-07-26 09:52:00,53.6,50.0,30.03,SE,124,0.0,-999.0,88,-99.99,,,0.00,weatherlink.com 1.10,2013-07-26 13:52:00,
2013-07-26 10:07:00,53.9,51.0,30.03,SE,124,0.0,-999.0,88,-99.99,,,0.00,weatherlink.com 1.10,2013-07-26 14:07:00,
2013-07-26 10:22:00,54.4,51.0,30.03,SE,124,0.0,-999.0,87,-99.99,,,0.00,weatherlink.com 1.10,2013-07-26 14:22:00,
2013-07-26 10:37:00,55.3,51.0,30.04,SE,124,0.0,-999.0,86,-99.99,,,0.00,weatherlink.com 1.10,2013-07-26 14:37:00,
2013-07-26 10:52:00,56.5,51.0,30.05,WSW,255,0.0,-999.0,83,-99.99,,,0.00,weatherlink.com 1.10,2013-07-26 14:52:00,
2013-07-26 11:07:00,57.6,52.0,30.05,SSE,157,0.0,-999.0,80,-99.99,,,0.00,weatherlink.com 1.10,2013-07-26 15:07:00,
2013-07-26 11:22:00,59.2,52.0,30.05,SSE,158,0.0,-999.0,76,-99.99,,,0.00,weatherlink.com 1.10,2013-07-26 15:22:00,
2013-07-26 11:38:00,60.4,52.0,30.05,WSW,240,0.0,-999.0,73,-99.99,,,0.00,weatherlink.com 1.10,2013-07-26 15:38:00,
2013-07-26 11:53:00,61.5,52.0,30.05,South,175,1.0,-999.0,70,-99.99,,,0.00,weatherlink.com 1.10,2013-07-26 15:53:00,
2013-07-26 12:07:00,62.3,52.0,30.05,SSE,149,0.0,-999.0,70,-99.99,,,0.00,weatherlink.com 1.10,2013-07-26 16:07:00,
2013-07-26 12:22:00,63.9,53.0,30.05,SE,142,0.0,-999.0,67,-99.99,,,0.00,weatherlink.com 1.10,2013-07-26 16:22:00,
2013-07-26 12:38:00,65.0,53.0,30.05,South,180,0.0,-999.0,65,-99.99,,,0.00,weatherlink.com 1.10,2013-07-26 16:38:00,
2013-07-26 12:53:00,66.6,53.0,30.05,South,179,3.0,-999.0,63,-99.99,,,0.00,weatherlink.com 1.10,2013-07-26 16:53:00,
2013-07-26 13:07:00,67.9,53.0,30.04,South,177,0.0,-999.0,60,-99.99,,,0.00,weatherlink.com 1.10,2013-07-26 17:07:00,
2013-07-26 13:22:00,68.9,54.0,30.04,SE,124,0.0,-999.0,60,-99.99,,,0.00,weatherlink.com 1.10,2013-07-26 17:22:00,
2013-07-26 13:37:00,70.1,54.0,30.03,SE,132,2.0,-999.0,57,-99.99,,,0.00,weatherlink.com 1.10,2013-07-26 17:37:00,
2013-07-26 13:52:00,71.3,54.0,30.03,SE,146,0.0,-999.0,55,-99.99,,,0.00,weatherlink.com 1.10,2013-07-26 17:52:00,
2013-07-26 14:07:00,73.2,55.0,30.03,South,191,2.0,-999.0,53,-99.99,,,0.00,weatherlink.com 1.10,2013-07-26 18:07:00,
2013-07-26 14:22:00,74.0,55.0,30.03,SE,126,1.0,-999.0,51,-99.99,,,0.00,weatherlink.com 1.10,2013-07-26 18:22:00,
2013-07-26 14:38:00,75.3,55.0,30.03,South,184,7.0,-999.0,50,-99.99,,,0.00,weatherlink.com 1.10,2013-07-26 18:38:00,
2013-07-26 14:53:00,76.3,56.0,30.02,ESE,115,1.0,-999.0,49,-99.99,,,0.00,weatherlink.com 1.10,2013-07-26 18:53:00,
2013-07-26 15:08:00,76.8,56.0,30.02,ESE,111,2.0,-999.0,48,-99.99,,,0.00,weatherlink.com 1.10,2013-07-26 19:08:00,
2013-07-26 15:23:00,77.9,57.0,30.02,SSW,205,2.0,-999.0,48,-99.99,,,0.00,weatherlink.com 1.10,2013-07-26 19:23:00,
2013-07-26 15:38:00,79.4,56.0,30.01,SE,124,0.0,-999.0,45,-99.99,,,0.00,weatherlink.com 1.10,2013-07-26 19:38:00,
2013-07-26 15:53:00,80.7,56.0,30.00,East,88,3.0,-999.0,43,-99.99,,,0.00,weatherlink.com 1.10,2013-07-26 19:53:00,
2013-07-26 16:08:00,81.8,57.0,30.00,South,169,3.0,-999.0,43,-99.99,,,0.00,weatherlink.com 1.10,2013-07-26 20:08:00,
2013-07-26 16:23:00,82.8,56.0,29.99,SSE,160,3.0,-999.0,40,-99.99,,,0.00,weatherlink.com 1.10,2013-07-26 20:23:00,
2013-07-26 16:38:00,83.4,57.0,29.98,SSW,192,3.0,-999.0,41,-99.99,,,0.00,weatherlink.com 1.10,2013-07-26 20:38:00,
2013-07-26 16:53:00,84.5,58.0,29.98,South,190,4.0,-999.0,40,-99.99,,,0.00,weatherlink.com 1.10,2013-07-26 20:53:00,
2013-07-26 17:08:00,85.1,57.0,29.98,SSE,149,6.0,-999.0,39,-99.99,,,0.00,weatherlink.com 1.10,2013-07-26 21:08:00,
2013-07-26 17:23:00,86.7,57.0,29.97,SSE,161,6.0,-999.0,37,-99.99,,,0.00,weatherlink.com 1.10,2013-07-26 21:23:00,
2013-07-26 17:38:00,87.4,57.0,29.96,SSE,165,4.0,-999.0,36,-99.99,,,0.00,weatherlink.com 1.10,2013-07-26 21:38:00,
2013-07-26 17:53:00,87.6,58.0,29.96,SSW,200,0.0,-999.0,37,-99.99,,,0.00,weatherlink.com 1.10,2013-07-26 21:53:00,
2013-07-26 18:10:00,88.4,58.0,29.95,SE,127,2.0,-999.0,36,-99.99,,,0.00,weatherlink.com 1.10,2013-07-26 22:10:00,
2013-07-26 18:23:00,88.8,59.0,29.95,ESE,116,3.0,-999.0,37,-99.99,,,0.00,weatherlink.com 1.10,2013-07-26 22:23:00,
2013-07-26 18:38:00,88.8,59.0,29.94,SSE,159,1.0,-999.0,37,-99.99,,,0.00,weatherlink.com 1.10,2013-07-26 22:38:00,
2013-07-26 18:53:00,89.7,59.0,29.94,SSE,151,3.0,-999.0,36,-99.99,,,0.00,weatherlink.com 1.10,2013-07-26 22:53:00,
2013-07-26 19:08:00,89.7,59.0,29.94,SE,133,0.0,-999.0,36,-99.99,,,0.00,weatherlink.com 1.10,2013-07-26 23:08:00,
2013-07-26 19:24:00,90.1,60.0,29.93,South,173,5.0,-999.0,37,-99.99,,,0.00,weatherlink.com 1.10,2013-07-26 23:24:00,
2013-07-26 19:39:00,89.5,60.0,29.93,SSE,155,4.0,-999.0,37,-99.99,,,0.00,weatherlink.com 1.10,2013-07-26 23:39:00,
2013-07-26 19:54:00,88.6,61.0,29.92,South,188,4.0,-999.0,39,-99.99,,,0.00,weatherlink.com 1.10,2013-07-26 23:54:00,
2013-07-26 20:09:00,87.4,60.0,29.93,SE,138,7.0,-999.0,40,-99.99,,,0.00,weatherlink.com 1.10,2013-07-27 00:09:00,
2013-07-26 20:24:00,85.3,60.0,29.93,SSE,163,6.0,-999.0,43,-99.99,,,0.00,weatherlink.com 1.10,2013-07-27 00:24:00,
2013-07-26 20:39:00,83.8,60.0,29.94,SE,126,6.0,-999.0,44,-99.99,,,0.00,weatherlink.com 1.10,2013-07-27 00:39:00,
2013-07-26 20:54:00,83.0,60.0,29.94,ESE,123,4.0,-999.0,46,-99.99,,,0.00,weatherlink.com 1.10,2013-07-27 00:54:00,
2013-07-26 21:09:00,81.8,60.0,29.94,SE,132,2.0,-999.0,47,-99.99,,,0.00,weatherlink.com 1.10,2013-07-27 01:09:00,
2013-07-26 21:24:00,80.7,59.0,29.94,ESE,120,3.0,-999.0,48,-99.99,,,0.00,weatherlink.com 1.10,2013-07-27 01:24:00,
2013-07-26 21:39:00,80.1,59.0,29.94,East,101,2.0,-999.0,49,-99.99,,,0.00,weatherlink.com 1.10,2013-07-27 01:39:00,
2013-07-26 21:54:00,79.0,59.0,29.93,SSE,161,2.0,-999.0,50,-99.99,,,0.00,weatherlink.com 1.10,2013-07-27 01:54:00,
2013-07-26 22:09:00,78.3,59.0,29.93,SE,135,2.0,-999.0,51,-99.99,,,0.00,weatherlink.com 1.10,2013-07-27 02:09:00,
2013-07-26 22:24:00,77.2,58.0,29.94,SE,134,3.0,-999.0,51,-99.99,,,0.00,weatherlink.com 1.10,2013-07-27 02:24:00,
2013-07-26 22:39:00,75.8,58.0,29.94,SE,138,3.0,-999.0,54,-99.99,,,0.00,weatherlink.com 1.10,2013-07-27 02:39:00,
2013-07-26 22:54:00,74.6,57.0,29.94,ESE,121,1.0,-999.0,55,-99.99,,,0.00,weatherlink.com 1.10,2013-07-27 02:54:00,
2013-07-26 23:09:00,73.3,57.0,29.95,SE,127,5.0,-999.0,58,-99.99,,,0.00,weatherlink.com 1.10,2013-07-27 03:09:00,
2013-07-26 23:24:00,72.0,57.0,29.95,ESE,121,2.0,-999.0,59,-99.99,,,0.00,weatherlink.com 1.10,2013-07-27 03:24:00,
2013-07-26 23:40:00,70.8,57.0,29.95,ESE,121,1.0,-999.0,62,-99.99,,,0.00,weatherlink.com 1.10,2013-07-27 03:40:00,
2013-07-26 23:55:00,69.6,56.0,29.95,ESE,121,0.0,-999.0,63,-99.99,,,0.00,weatherlink.com 1.10,2013-07-27 03:55:00,